Time;durP1;ratioP1;P1;durP2;ratioP2;P2;SDS_P1;SDS_P2;PMS_P1;PMS_P2;Temp;Humidity;BMP_temperature;BMP_pressure;BME280_temperature;BME280_humidity;BME280_pressure;Samples;Min_cycle;Max_cycle;Signal;HPM_P1;HPM_P2
2022/08/20 00:01:40;;;;;;;1999.90;999.90;;;19.80;99.90;;;;;;5035440;28;20200;-67
2022/08/20 00:04:07;;;;;;;1999.90;999.90;;;19.80;99.90;;;;;;5035350;28;20189;-67
2022/08/20 00:06:36;;;;;;;1999.90;999.90;;;19.70;99.90;;;;;;5035617;28;20208;-68
2022/08/20 00:09:04;;;;;;;1999.90;999.90;;;19.80;99.90;;;;;;5035526;28;20208;-68
2022/08/20 00:11:32;;;;;;;1999.90;999.90;;;19.60;99.90;;;;;;5035510;28;20204;-68
2022/08/20 00:14:02;;;;;;;1999.90;999.90;;;19.60;99.90;;;;;;5035137;28;20231;-67
2022/08/20 00:16:31;;;;;;;1999.90;999.90;;;19.60;99.90;;;;;;5035154;28;20186;-68
2022/08/20 00:18:59;;;;;;;1999.90;999.90;;;19.70;99.90;;;;;;5035082;28;20215;-68
2022/08/20 00:21:26;;;;;;;1999.90;999.90;;;19.80;99.90;;;;;;5035354;28;20202;-67
2022/08/20 00:23:56;;;;;;;1999.90;999.90;;;19.70;99.90;;;;;;5035249;28;20196;-68
2022/08/20 00:26:24;;;;;;;1999.90;999.90;;;19.80;99.90;;;;;;5035381;28;20189;-68
2022/08/20 00:28:52;;;;;;;1999.90;999.90;;;19.70;99.90;;;;;;5035320;28;20200;-68
2022/08/20 00:31:22;;;;;;;1999.90;999.90;;;19.60;99.90;;;;;;5035114;28;20191;-68
2022/08/20 00:33:49;;;;;;;1999.90;999.90;;;19.70;99.90;;;;;;5034616;28;20213;-68
2022/08/20 00:36:17;;;;;;;1999.90;999.90;;;19.80;99.90;;;;;;5035165;28;20213;-68
2022/08/20 00:38:46;;;;;;;1999.90;999.90;;;19.80;99.90;;;;;;5035052;28;20196;-68
2022/08/20 00:41:18;;;;;;;1999.90;999.90;;;19.60;99.90;;;;;;5034975;28;20209;-68
2022/08/20 00:43:48;;;;;;;1999.90;999.90;;;19.70;99.90;;;;;;5034875;28;20171;-68
2022/08/20 00:46:19;;;;;;;1999.90;999.90;;;19.70;99.90;;;;;;5034604;28;20204;-67
2022/08/20 00:48:48;;;;;;;1999.90;999.90;;;19.80;99.90;;;;;;5034666;28;20538;-68
2022/08/20 00:51:22;;;;;;;1999.90;999.90;;;19.70;99.90;;;;;;5034540;28;20695;-68
2022/08/20 00:53:49;;;;;;;1999.90;999.90;;;19.70;99.90;;;;;;5034564;28;20204;-68
2022/08/20 00:56:19;;;;;;;1999.90;999.90;;;19.60;99.90;;;;;;5034668;28;20196;-67
2022/08/20 00:58:47;;;;;;;1999.90;999.90;;;19.60;99.90;;;;;;5034466;28;20581;-67
2022/08/20 01:01:15;;;;;;;1999.90;999.90;;;19.60;99.90;;;;;;5034626;28;20196;-66
2022/08/20 01:03:42;;;;;;;1999.90;999.90;;;19.60;99.90;;;;;;5034333;28;20200;-66
2022/08/20 01:06:10;;;;;;;1999.90;999.90;;;19.60;99.90;;;;;;5034547;28;20197;-67
2022/08/20 01:08:39;;;;;;;1999.90;999.90;;;19.50;99.90;;;;;;5034191;28;20699;-67
2022/08/20 01:11:09;;;;;;;1999.90;999.90;;;19.60;99.90;;;;;;5033443;28;20196;-67
2022/08/20 01:13:38;;;;;;;1999.90;999.90;;;19.80;99.90;;;;;;5034075;28;20225;-67
2022/08/20 01:16:13;;;;;;;1999.90;999.90;;;19.70;99.90;;;;;;5034040;28;20660;-67
2022/08/20 01:18:41;;;;;;;1999.90;999.90;;;19.60;99.90;;;;;;5034055;28;20196;-66
2022/08/20 01:21:09;;;;;;;1999.90;999.90;;;19.60;99.90;;;;;;5034211;28;20192;-66
2022/08/20 01:23:42;;;;;;;1999.90;999.90;;;19.60;99.90;;;;;;5034104;28;20190;-66
2022/08/20 01:26:14;;;;;;;1999.90;999.90;;;19.70;99.90;;;;;;5033917;28;20185;-68
2022/08/20 01:28:44;;;;;;;1999.90;999.90;;;19.80;99.90;;;;;;5034198;28;20179;-67
2022/08/20 01:31:14;;;;;;;1999.90;999.90;;;19.70;99.90;;;;;;5033928;28;20188;-67
2022/08/20 01:33:42;;;;;;;1999.90;999.90;;;19.70;99.90;;;;;;5033653;28;20208;-67
2022/08/20 01:36:10;;;;;;;1999.90;999.90;;;19.90;99.90;;;;;;5033558;28;20230;-67
2022/08/20 01:38:37;;;;;;;1999.90;999.90;;;19.70;99.90;;;;;;5033624;28;20607;-67
2022/08/20 01:41:21;;;;;;;1999.90;999.90;;;19.90;99.90;;;;;;5033932;28;20623;-67
2022/08/20 01:43:49;;;;;;;1999.90;999.90;;;19.70;99.90;;;;;;5033569;28;20188;-67
2022/08/20 01:46:17;;;;;;;1999.90;999.90;;;19.90;99.90;;;;;;5033532;28;20211;-66
2022/08/20 01:48:45;;;;;;;1999.90;999.90;;;19.70;99.90;;;;;;5033701;28;20201;-67
2022/08/20 01:51:15;;;;;;;1999.90;999.90;;;19.80;99.90;;;;;;5033705;28;20201;-68
2022/08/20 01:53:44;;;;;;;1999.90;999.90;;;19.90;99.90;;;;;;5033483;28;20204;-68
2022/08/20 01:56:15;;;;;;;1999.90;999.90;;;19.90;99.90;;;;;;5033569;28;20192;-67
2022/08/20 01:58:48;;;;;;;1999.90;999.90;;;19.90;99.90;;;;;;5033286;28;20858;-66
2022/08/20 02:01:25;;;;;;;1999.90;999.90;;;20.00;99.90;;;;;;5033123;28;20520;-66
2022/08/20 02:03:53;;;;;;;1999.90;999.90;;;20.00;99.90;;;;;;5033537;28;20186;-66
2022/08/20 02:06:24;;;;;;;1999.90;999.90;;;20.00;99.90;;;;;;5033066;28;20611;-67
2022/08/20 02:08:54;;;;;;;1999.90;999.90;;;19.90;99.90;;;;;;5033022;28;20187;-66
2022/08/20 02:11:23;;;;;;;1999.90;999.90;;;20.00;99.90;;;;;;5033219;28;20200;-67
2022/08/20 02:13:52;;;;;;;1999.90;999.90;;;19.90;99.90;;;;;;5033259;28;20220;-67
2022/08/20 02:16:21;;;;;;;1999.90;999.90;;;19.90;99.90;;;;;;5032949;28;20678;-67
2022/08/20 02:18:50;;;;;;;1999.90;999.90;;;20.00;99.90;;;;;;5033055;28;20207;-67
2022/08/20 02:21:17;;;;;;;1999.90;999.90;;;19.90;99.90;;;;;;5033129;28;20192;-67
2022/08/20 02:23:44;;;;;;;1999.90;999.90;;;20.00;99.90;;;;;;5032624;28;20193;-67
2022/08/20 02:26:11;;;;;;;1999.90;999.90;;;19.90;99.90;;;;;;5033062;28;20201;-67
2022/08/20 02:28:40;;;;;;;1999.90;999.90;;;19.80;99.90;;;;;;5032694;28;20567;-67
2022/08/20 02:31:07;;;;;;;1999.90;999.90;;;19.90;99.90;;;;;;5032617;28;20205;-69
2022/08/20 02:33:36;;;;;;;1999.90;999.90;;;19.90;99.90;;;;;;5032918;28;20229;-68
2022/08/20 02:36:04;;;;;;;1999.90;999.90;;;19.90;99.90;;;;;;5032544;28;20232;-68
2022/08/20 02:38:33;;;;;;;1999.90;999.90;;;19.70;99.90;;;;;;5032494;28;20240;-68
2022/08/20 02:41:01;;;;;;;1999.90;999.90;;;19.70;99.90;;;;;;5032504;28;20205;-68
2022/08/20 02:43:28;;;;;;;1999.90;999.90;;;19.60;99.90;;;;;;5032496;28;20238;-68
2022/08/20 02:45:58;;;;;;;1999.90;999.90;;;19.70;99.90;;;;;;5032777;28;20200;-68
2022/08/20 02:48:26;;;;;;;1999.90;999.90;;;19.80;99.90;;;;;;5032419;28;20210;-68
2022/08/20 02:50:56;;;;;;;1999.90;999.90;;;19.60;99.90;;;;;;5032446;28;20691;-68
2022/08/20 02:53:24;;;;;;;1999.90;999.90;;;19.70;99.90;;;;;;5032255;28;20201;-68
2022/08/20 02:55:51;;;;;;;1999.90;999.90;;;19.70;99.90;;;;;;5032710;28;20210;-67
2022/08/20 02:58:20;;;;;;;1999.90;999.90;;;19.50;99.90;;;;;;5032389;28;20200;-68
2022/08/20 03:00:47;;;;;;;1999.90;999.90;;;19.70;99.90;;;;;;5032539;28;20192;-67
2022/08/20 03:03:21;;;;;;;1999.90;999.90;;;19.70;99.90;;;;;;5032435;28;20215;-67
2022/08/20 03:05:50;;;;;;;1999.90;999.90;;;19.70;99.90;;;;;;5032547;28;20187;-68
2022/08/20 03:08:17;;;;;;;1999.90;999.90;;;19.60;99.90;;;;;;5032146;28;20666;-68
2022/08/20 03:10:46;;;;;;;1999.90;999.90;;;19.60;99.90;;;;;;5032261;28;20689;-67
2022/08/20 03:13:15;;;;;;;1999.90;999.90;;;19.40;99.90;;;;;;5032408;28;20204;-68
2022/08/20 03:15:45;;;;;;;1999.90;999.90;;;19.50;99.90;;;;;;5032377;28;20211;-68
2022/08/20 03:18:12;;;;;;;1999.90;999.90;;;19.50;99.90;;;;;;5032107;28;20242;-68
2022/08/20 03:20:41;;;;;;;1999.90;999.90;;;19.40;99.90;;;;;;5032130;28;20687;-67
2022/08/20 03:23:08;;;;;;;1999.90;999.90;;;19.40;99.90;;;;;;5032203;28;20200;-67
2022/08/20 03:25:36;;;;;;;1999.90;999.90;;;19.50;99.90;;;;;;5032356;28;20196;-67
2022/08/20 03:28:03;;;;;;;1999.90;999.90;;;19.50;99.90;;;;;;5031984;28;20685;-67
2022/08/20 03:30:31;;;;;;;1999.90;999.90;;;19.50;99.90;;;;;;5032301;28;20206;-68
2022/08/20 03:32:59;;;;;;;1999.90;999.90;;;19.40;99.90;;;;;;5032137;28;20203;-68
2022/08/20 03:35:28;;;;;;;1999.90;999.90;;;19.30;99.90;;;;;;5035451;28;20246;-68
2022/08/20 03:37:57;;;;;;;1999.90;999.90;;;19.30;99.90;;;;;;5036148;28;20205;-68
2022/08/20 03:40:28;;;;;;;1999.90;999.90;;;19.30;99.90;;;;;;5035911;28;20207;-68
2022/08/20 03:42:55;;;;;;;1999.90;999.90;;;19.40;99.90;;;;;;5035785;28;20239;-68
2022/08/20 03:45:23;;;;;;;1999.90;999.90;;;19.40;99.90;;;;;;5036101;28;20215;-68
2022/08/20 03:47:53;;;;;;;1999.90;999.90;;;19.40;99.90;;;;;;5035719;28;20585;-67
2022/08/20 03:50:23;;;;;;;1999.90;999.90;;;19.20;99.90;;;;;;5035945;28;20321;-68
2022/08/20 03:52:50;;;;;;;1999.90;999.90;;;19.20;99.90;;;;;;5035584;28;20699;-68
2022/08/20 03:55:20;;;;;;;1999.90;999.90;;;19.30;99.90;;;;;;5035466;28;20216;-68
2022/08/20 03:57:50;;;;;;;1999.90;999.90;;;19.30;99.90;;;;;;5035521;28;20196;-67
2022/08/20 04:00:32;;;;;;;1999.90;999.90;;;19.20;99.90;;;;;;5035481;28;20176;-67
2022/08/20 04:02:59;;;;;;;1999.90;999.90;;;19.10;99.90;;;;;;5035584;28;20181;-66
2022/08/20 04:05:28;;;;;;;1999.90;999.90;;;19.30;99.90;;;;;;5035684;28;20200;-67
2022/08/20 04:07:56;;;;;;;1999.90;999.90;;;19.20;99.90;;;;;;5035271;28;20573;-67
2022/08/20 04:10:25;;;;;;;1999.90;999.90;;;19.20;99.90;;;;;;5035643;28;20204;-67
2022/08/20 04:12:52;;;;;;;1999.90;999.90;;;19.00;99.90;;;;;;5035539;28;20197;-67
2022/08/20 04:15:21;;;;;;;1999.90;999.90;;;19.10;99.90;;;;;;5035496;28;20581;-67
2022/08/20 04:17:50;;;;;;;1999.90;999.90;;;19.00;99.90;;;;;;5035176;28;20206;-68
2022/08/20 04:20:21;;;;;;;1999.90;999.90;;;19.00;99.90;;;;;;5035416;28;20219;-67
2022/08/20 04:22:49;;;;;;;1999.90;999.90;;;19.00;99.90;;;;;;5035241;28;20176;-67
2022/08/20 04:25:16;;;;;;;1999.90;999.90;;;19.10;99.90;;;;;;5035092;28;20196;-68
2022/08/20 04:27:45;;;;;;;1999.90;999.90;;;18.90;99.90;;;;;;5035306;28;20200;-68
2022/08/20 04:30:14;;;;;;;1999.90;999.90;;;19.00;99.90;;;;;;5035337;28;20561;-68
2022/08/20 04:32:41;;;;;;;1999.90;999.90;;;18.90;99.90;;;;;;5034831;28;20609;-67
2022/08/20 04:35:12;;;;;;;1999.90;999.90;;;19.00;99.90;;;;;;5034850;28;20238;-67
2022/08/20 04:37:39;;;;;;;1999.90;999.90;;;18.90;99.90;;;;;;5035109;28;20188;-68
2022/08/20 04:42:54;;;;;;;1999.90;999.90;;;19.00;99.90;;;;;;5034728;28;20172;-69
2022/08/20 04:45:22;;;;;;;1999.90;999.90;;;18.90;99.90;;;;;;5033545;28;20197;-68
2022/08/20 04:47:50;;;;;;;1999.90;999.90;;;18.90;99.90;;;;;;5034895;28;20196;-68
2022/08/20 04:50:18;;;;;;;1999.90;999.90;;;18.90;99.90;;;;;;5034552;28;20562;-68
2022/08/20 04:52:46;;;;;;;1999.90;999.90;;;19.00;99.90;;;;;;5034422;28;20218;-69
2022/08/20 04:55:13;;;;;;;1999.90;999.90;;;18.90;99.90;;;;;;5034705;28;20208;-71
2022/08/20 04:57:40;;;;;;;1999.90;999.90;;;18.80;99.90;;;;;;5034636;28;20207;-68
2022/08/20 05:00:14;;;;;;;1999.90;999.90;;;18.80;99.90;;;;;;5034704;28;20196;-65
2022/08/20 05:02:41;;;;;;;1999.90;999.90;;;18.80;99.90;;;;;;5034340;28;20660;-63
2022/08/20 05:05:09;;;;;;;1999.90;999.90;;;18.80;99.90;;;;;;5034640;28;20188;-65
2022/08/20 05:07:39;;;;;;;1999.90;999.90;;;18.70;99.90;;;;;;5034155;28;20677;-66
2022/08/20 05:10:08;;;;;;;1999.90;999.90;;;18.70;99.90;;;;;;5034575;28;20413;-64
2022/08/20 05:12:35;;;;;;;1999.90;999.90;;;18.60;99.90;;;;;;5034563;28;20232;-66
2022/08/20 05:15:03;;;;;;;1999.90;999.90;;;18.60;99.90;;;;;;5034359;28;20655;-64
2022/08/20 05:17:31;;;;;;;1999.90;999.90;;;18.40;99.90;;;;;;5034118;28;20210;-65
2022/08/20 05:19:59;;;;;;;1999.90;999.90;;;18.50;99.90;;;;;;5034379;28;20200;-64
2022/08/20 05:22:27;;;;;;;1999.90;999.90;;;18.40;99.90;;;;;;5034181;28;20204;-65
2022/08/20 05:24:55;;;;;;;1999.90;999.90;;;18.30;99.90;;;;;;5034335;28;20192;-65
2022/08/20 05:27:25;;;;;;;1999.90;999.90;;;18.30;99.90;;;;;;5034241;28;20201;-64
2022/08/20 05:29:53;;;;;;;1999.90;999.90;;;18.30;99.90;;;;;;5033901;28;20198;-64
2022/08/20 05:32:20;;;;;;;1999.90;999.90;;;18.20;99.90;;;;;;5033977;28;20210;-64
2022/08/20 05:34:49;;;;;;;1999.90;999.90;;;18.20;99.90;;;;;;5033737;28;20261;-66
2022/08/20 05:37:16;;;;;;;1999.90;999.90;;;18.20;99.90;;;;;;5034021;28;20413;-65
2022/08/20 05:39:44;;;;;;;1999.90;999.90;;;18.30;99.90;;;;;;5033895;28;20208;-66
2022/08/20 05:42:11;;;;;;;1999.90;999.90;;;18.20;99.90;;;;;;5033589;28;20695;-66
2022/08/20 05:44:38;;;;;;;1999.90;999.90;;;18.20;99.90;;;;;;5033449;28;20722;-67
2022/08/20 05:47:05;;;;;;;1999.90;999.90;;;18.20;99.90;;;;;;5033883;28;20204;-66
2022/08/20 05:49:33;;;;;;;1999.90;999.90;;;18.20;99.90;;;;;;5033808;28;20206;-66
2022/08/20 05:52:02;;;;;;;1999.90;999.90;;;18.30;99.90;;;;;;5033359;28;20212;-67
2022/08/20 05:54:29;;;;;;;1999.90;999.90;;;18.40;99.90;;;;;;5033621;28;20216;-65
2022/08/20 05:56:56;;;;;;;1999.90;999.90;;;18.50;99.90;;;;;;5033387;28;20211;-65
2022/08/20 05:59:24;;;;;;;1999.90;999.90;;;18.60;99.90;;;;;;5033588;28;20208;-66
2022/08/20 06:01:51;;;;;;;1999.90;999.90;;;18.60;99.90;;;;;;5033511;28;20197;-64
2022/08/20 06:04:25;;;;;;;1999.90;999.90;;;18.70;99.90;;;;;;5033576;28;20206;-65
2022/08/20 06:06:54;;;;;;;1999.90;999.90;;;18.70;99.90;;;;;;5033177;28;20188;-64
2022/08/20 06:09:25;;;;;;;1999.90;999.90;;;18.70;99.90;;;;;;5033478;28;20211;-65
2022/08/20 06:11:52;;;;;;;1999.90;999.90;;;18.80;99.90;;;;;;5033185;28;20554;-66
2022/08/20 06:14:19;;;;;;;1999.90;999.90;;;18.60;99.90;;;;;;5033266;28;20192;-66
2022/08/20 06:16:46;;;;;;;1999.90;999.90;;;18.50;99.90;;;;;;5033341;28;20669;-65
2022/08/20 06:19:13;;;;;;;1999.90;999.90;;;18.40;99.90;;;;;;5032876;28;20589;-64
2022/08/20 06:21:40;;;;;;;1999.90;999.90;;;18.30;99.90;;;;;;5033079;28;20214;-64
2022/08/20 06:24:08;;;;;;;1999.90;999.90;;;18.20;99.90;;;;;;5033214;28;20213;-64
2022/08/20 06:26:37;;;;;;;1999.90;999.90;;;18.20;99.90;;;;;;5033162;28;20206;-65
2022/08/20 06:29:06;;;;;;;1999.90;999.90;;;18.20;99.90;;;;;;5033148;28;20199;-64
2022/08/20 06:31:38;;;;;;;1999.90;999.90;;;18.20;99.90;;;;;;5032651;28;20192;-63
2022/08/20 06:34:06;;;;;;;1999.90;999.90;;;18.20;99.90;;;;;;5032624;28;20675;-65
2022/08/20 06:36:33;;;;;;;1999.90;999.90;;;18.20;99.90;;;;;;5032939;28;20264;-66
2022/08/20 06:39:00;;;;;;;1999.90;999.90;;;18.30;99.90;;;;;;5032959;28;20199;-65
2022/08/20 06:41:27;;;;;;;1999.90;999.90;;;18.30;99.90;;;;;;5032500;28;20207;-66
2022/08/20 06:43:55;;;;;;;1999.90;999.90;;;18.30;99.90;;;;;;5032879;28;20200;-65
2022/08/20 06:46:22;;;;;;;1999.90;999.90;;;18.40;99.90;;;;;;5032821;28;20189;-64
2022/08/20 06:48:51;;;;;;;1999.90;999.90;;;18.40;99.90;;;;;;5032423;28;20210;-65
2022/08/20 06:51:19;;;;;;;1999.90;999.90;;;18.30;99.90;;;;;;5029566;28;20196;-68
2022/08/20 06:53:46;;;;;;;1999.90;999.90;;;18.30;99.90;;;;;;5032749;28;20197;-68
2022/08/20 06:56:13;;;;;;;1999.90;999.90;;;18.50;99.90;;;;;;5032295;28;20220;-66
2022/08/20 06:58:40;;;;;;;1999.90;999.90;;;18.50;99.90;;;;;;5032384;28;20205;-65
2022/08/20 07:01:12;;;;;;;1999.90;999.90;;;18.40;99.90;;;;;;5032474;28;20203;-67
2022/08/20 07:03:40;;;;;;;1999.90;999.90;;;18.50;99.90;;;;;;5032615;28;20184;-65
2022/08/20 07:06:08;;;;;;;1999.90;999.90;;;18.60;99.90;;;;;;5032524;28;20192;-67
2022/08/20 07:08:35;;;;;;;1999.90;999.90;;;18.60;99.90;;;;;;5031806;28;20214;-66
2022/08/20 07:11:02;;;;;;;1999.90;999.90;;;18.60;99.90;;;;;;5032518;28;20206;-65
2022/08/20 07:13:30;;;;;;;1999.90;999.90;;;18.50;99.90;;;;;;5032390;28;20200;-66
2022/08/20 07:15:57;;;;;;;1999.90;999.90;;;18.50;99.90;;;;;;5032480;28;20230;-65
2022/08/20 07:18:25;;;;;;;1999.90;999.90;;;18.50;99.90;;;;;;5032404;28;20196;-66
2022/08/20 07:20:55;;;;;;;1999.90;999.90;;;18.40;99.90;;;;;;5032075;28;20192;-66
2022/08/20 07:23:22;;;;;;;1999.90;999.90;;;18.40;99.90;;;;;;5031748;28;20564;-66
2022/08/20 07:25:49;;;;;;;1999.90;999.90;;;18.50;99.90;;;;;;5031737;28;20200;-66
2022/08/20 07:28:27;;;;;;;1999.90;999.90;;;18.60;99.90;;;;;;5032032;28;20204;-64
2022/08/20 07:33:41;;;;;;;1999.90;999.90;;;18.60;99.90;;;;;;5032054;28;20664;-64
2022/08/20 07:36:09;;;;;;;1999.90;999.90;;;18.50;99.90;;;;;;5031762;28;20232;-65
2022/08/20 07:38:36;;;;;;;1999.90;999.90;;;18.50;99.90;;;;;;5032255;28;20200;-66
2022/08/20 07:41:06;;;;;;;1999.90;999.90;;;18.50;99.90;;;;;;5031985;28;20201;-65
2022/08/20 07:43:34;;;;;;;1999.90;999.90;;;18.40;99.90;;;;;;5031860;28;20568;-64
2022/08/20 07:46:07;;;;;;;1999.90;999.90;;;18.40;99.90;;;;;;5032187;28;20196;-64
2022/08/20 07:48:37;;;;;;;1999.90;999.90;;;18.40;99.90;;;;;;5032227;28;20237;-64
2022/08/20 07:51:07;;;;;;;1999.90;999.90;;;18.40;99.90;;;;;;5031766;28;20201;-67
2022/08/20 07:53:36;;;;;;;1999.90;999.90;;;18.50;99.90;;;;;;5031798;28;20196;-67
2022/08/20 07:56:07;;;;;;;1999.90;999.90;;;18.50;99.90;;;;;;5032065;28;20580;-68
2022/08/20 07:58:35;;;;;;;1999.90;999.90;;;18.70;99.90;;;;;;5032076;28;20191;-66
2022/08/20 08:01:03;;;;;;;1999.90;999.90;;;18.80;99.90;;;;;;5031942;28;20203;-65
2022/08/20 08:03:31;;;;;;;1999.90;999.90;;;18.80;99.90;;;;;;5032019;28;20200;-66
2022/08/20 08:05:58;;;;;;;1999.90;999.90;;;18.80;99.90;;;;;;5031721;28;20200;-66
2022/08/20 08:08:29;;;;;;;1999.90;999.90;;;18.80;99.90;;;;;;5031652;28;20222;-63
2022/08/20 08:11:02;;;;;;;1999.90;999.90;;;18.90;99.90;;;;;;5031969;28;20173;-65
2022/08/20 08:13:31;;;;;;;1999.90;999.90;;;18.90;99.90;;;;;;5031850;28;20185;-63
2022/08/20 08:16:01;;;;;;;1999.90;999.90;;;18.80;99.90;;;;;;5031551;28;20280;-65
2022/08/20 08:18:35;;;;;;;1999.90;999.90;;;18.70;99.90;;;;;;5031904;28;20215;-65
2022/08/20 08:21:02;;;;;;;1999.90;999.90;;;18.60;99.90;;;;;;5034273;28;20192;-66
2022/08/20 08:23:31;;;;;;;1999.90;999.90;;;18.60;99.90;;;;;;5035063;28;20542;-64
2022/08/20 08:25:58;;;;;;;1999.90;999.90;;;18.70;99.90;;;;;;5035417;28;20200;-65
2022/08/20 08:28:28;;;;;;;1999.90;999.90;;;18.70;99.90;;;;;;5033913;28;21291;-62
2022/08/20 08:30:56;;;;;;;1999.90;999.90;;;18.90;99.90;;;;;;5034935;28;20200;-66
2022/08/20 08:33:29;;;;;;;1999.90;999.90;;;18.70;99.90;;;;;;5034952;28;20708;-66
2022/08/20 08:35:57;;;;;;;1999.90;999.90;;;18.70;99.90;;;;;;5034759;28;20232;-65
2022/08/20 08:38:25;;;;;;;1999.90;999.90;;;18.90;99.90;;;;;;5034761;28;20201;-66
2022/08/20 08:40:57;;;;;;;1999.90;999.90;;;18.90;99.90;;;;;;5034792;28;20204;-65
2022/08/20 08:43:26;;;;;;;1999.90;999.90;;;18.90;99.90;;;;;;5034763;28;20665;-69
2022/08/20 08:46:00;;;;;;;1999.90;999.90;;;18.90;99.90;;;;;;5035023;28;20188;-69
2022/08/20 08:48:42;;;;;;;1999.90;999.90;;;18.80;99.90;;;;;;5034608;28;20187;-68
2022/08/20 08:51:11;;;;;;;1999.90;999.90;;;18.80;99.90;;;;;;5034564;28;20642;-67
2022/08/20 08:53:44;;;;;;;1999.90;999.90;;;18.70;99.90;;;;;;5034565;28;20262;-67
2022/08/20 08:56:14;;;;;;;1999.90;999.90;;;18.70;99.90;;;;;;5034726;28;20203;-67
2022/08/20 08:58:42;;;;;;;1999.90;999.90;;;18.80;99.90;;;;;;5034708;28;20200;-67
2022/08/20 09:01:12;;;;;;;1999.90;999.90;;;18.90;99.90;;;;;;5034552;28;20211;-63
2022/08/20 09:03:42;;;;;;;1999.90;999.90;;;18.90;99.90;;;;;;5034388;28;20577;-64
2022/08/20 09:06:13;;;;;;;1999.90;999.90;;;18.90;99.90;;;;;;5034657;28;20218;-65
2022/08/20 09:08:48;;;;;;;1999.90;999.90;;;18.90;99.90;;;;;;5034609;28;20187;-66
2022/08/20 09:11:17;;;;;;;1999.90;999.90;;;19.00;99.90;;;;;;5034159;28;20552;-66
2022/08/20 09:13:44;;;;;;;1999.90;999.90;;;19.30;99.90;;;;;;5034512;28;20665;-66
2022/08/20 09:16:13;;;;;;;1999.90;999.90;;;19.20;99.90;;;;;;5034362;28;20214;-66
2022/08/20 09:18:40;;;;;;;1999.90;999.90;;;19.20;99.90;;;;;;5034316;28;20206;-67
2022/08/20 09:21:08;;;;;;;1999.90;999.90;;;19.30;99.90;;;;;;5034149;28;20204;-68
2022/08/20 09:23:35;;;;;;;1999.90;999.90;;;19.40;99.90;;;;;;5034236;28;20197;-66
2022/08/20 09:26:03;;;;;;;1999.90;999.90;;;19.30;99.90;;;;;;5033977;28;20208;-65
2022/08/20 09:28:31;;;;;;;1999.90;999.90;;;19.40;99.90;;;;;;5034121;28;20200;-65
2022/08/20 09:30:58;;;;;;;1999.90;999.90;;;19.40;99.90;;;;;;5033664;28;20215;-64
2022/08/20 09:33:25;;;;;;;1999.90;999.90;;;19.30;99.90;;;;;;5033553;28;20598;-63
2022/08/20 09:35:52;;;;;;;1999.90;999.90;;;19.10;99.90;;;;;;5032918;28;20231;-64
2022/08/20 09:38:20;;;;;;;1999.90;999.90;;;19.10;99.90;;;;;;5033976;28;20204;-64
2022/08/20 09:40:47;;;;;;;1999.90;999.90;;;19.10;99.90;;;;;;5033948;28;20204;-64
2022/08/20 09:43:14;;;;;;;1999.90;999.90;;;19.20;99.90;;;;;;5033894;28;20534;-64
2022/08/20 09:45:42;;;;;;;1999.90;999.90;;;19.20;99.90;;;;;;5033833;28;20196;-63
2022/08/20 09:48:11;;;;;;;1999.90;999.90;;;19.20;99.90;;;;;;5033841;28;20216;-64
2022/08/20 09:50:44;;;;;;;1999.90;999.90;;;19.30;99.90;;;;;;5032760;28;20565;-64
2022/08/20 09:53:11;;;;;;;1999.90;999.90;;;19.30;99.90;;;;;;5033273;28;20529;-65
2022/08/20 09:55:40;;;;;;;1999.90;999.90;;;19.30;99.90;;;;;;5033635;28;20245;-66
2022/08/20 09:58:18;;;;;;;1999.90;999.90;;;19.30;99.90;;;;;;5033246;28;20215;-63
2022/08/20 10:00:47;;;;;;;1999.90;999.90;;;19.20;99.90;;;;;;5033584;28;20185;-65
2022/08/20 10:03:15;;;;;;;1999.90;999.90;;;19.20;99.90;;;;;;5033354;28;20203;-63
2022/08/20 10:05:42;;;;;;;1999.90;999.90;;;19.40;99.90;;;;;;5033066;28;20220;-64
2022/08/20 10:08:11;;;;;;;1999.90;999.90;;;19.80;99.90;;;;;;5033155;28;20613;-66
2022/08/20 10:10:38;;;;;;;1999.90;999.90;;;20.30;99.90;;;;;;5033037;28;20561;-65
2022/08/20 10:13:05;;;;;;;1999.90;999.90;;;21.60;99.90;;;;;;5033164;28;20279;-66
2022/08/20 10:15:32;;;;;;;1999.90;999.90;;;22.30;99.90;;;;;;5032893;28;20576;-65
2022/08/20 10:18:04;;;;;;;1999.90;999.90;;;22.50;99.90;;;;;;5032860;28;20580;-66
2022/08/20 10:20:31;;;;;;;1999.90;999.90;;;22.60;99.90;;;;;;5033251;28;20192;-65
2022/08/20 10:22:59;;;;;;;1999.90;999.90;;;22.40;99.90;;;;;;5032981;28;20211;-67
2022/08/20 10:25:27;;;;;;;1999.90;999.90;;;22.80;99.90;;;;;;5033134;28;20196;-66
2022/08/20 10:27:54;;;;;;;1999.90;999.90;;;23.20;99.90;;;;;;5032812;28;20539;-66
2022/08/20 10:30:22;;;;;;;1999.90;999.90;;;23.20;99.90;;;;;;5033108;28;20211;-66
2022/08/20 10:32:49;;;;;;;1999.90;999.90;;;23.20;99.90;;;;;;5032999;28;20204;-66
2022/08/20 10:35:18;;;;;;;1999.90;999.90;;;23.00;99.90;;;;;;5032651;28;20235;-66
2022/08/20 10:37:45;;;;;;;1999.90;999.90;;;23.40;99.90;;;;;;5032820;28;20223;-66
2022/08/20 10:40:14;;;;;;;1999.90;999.90;;;22.30;99.90;;;;;;5032851;28;20195;-66
2022/08/20 10:42:41;;;;;;;1999.90;999.90;;;22.20;99.90;;;;;;5032021;28;20200;-65
2022/08/20 10:45:09;;;;;;;1999.90;999.90;;;23.20;99.90;;;;;;5032137;28;20210;-66
2022/08/20 10:47:36;;;;;;;1999.90;999.90;;;23.40;99.90;;;;;;5032776;28;20192;-66
2022/08/20 10:50:07;;;;;;;1999.90;999.90;;;23.60;99.90;;;;;;5032520;28;20665;-66
2022/08/20 10:52:36;;;;;;;1999.90;999.90;;;23.40;99.90;;;;;;5032565;28;20189;-66
2022/08/20 10:55:03;;;;;;;1999.90;999.90;;;23.40;99.90;;;;;;5032622;28;20196;-66
2022/08/20 10:57:33;;;;;;;1999.90;999.90;;;23.10;99.90;;;;;;5032637;28;20212;-67
2022/08/20 11:00:00;;;;;;;1999.90;999.90;;;22.10;99.90;;;;;;5032378;28;20692;-65
2022/08/20 11:02:28;;;;;;;1999.90;999.90;;;22.40;99.90;;;;;;5032516;28;20197;-65
2022/08/20 11:04:55;;;;;;;1999.90;999.90;;;23.20;99.90;;;;;;5032571;28;20219;-64
2022/08/20 11:07:26;;;;;;;1999.90;999.90;;;23.40;99.90;;;;;;5032434;28;20196;-64
2022/08/20 11:09:55;;;;;;;1999.90;999.90;;;23.20;99.90;;;;;;5032473;28;20202;-64
2022/08/20 11:12:23;;;;;;;1999.90;999.90;;;24.00;99.90;;;;;;5032420;28;20269;-63
2022/08/20 11:14:51;;;;;;;1999.90;999.90;;;24.70;99.90;;;;;;5032543;28;20196;-63
2022/08/20 11:17:23;;;;;;;1999.90;999.90;;;25.00;99.90;;;;;;5032397;28;20223;-63
2022/08/20 11:19:51;;;;;;;1999.90;999.90;;;24.20;99.90;;;;;;5031637;28;20669;-64
2022/08/20 11:22:18;;;;;;;1999.90;999.90;;;24.50;99.90;;;;;;5032146;28;20196;-64
2022/08/20 11:24:46;;;;;;;1999.90;999.90;;;24.30;99.90;;;;;;5031978;28;20202;-65
2022/08/20 11:27:21;;;;;;;1999.90;999.90;;;25.10;99.90;;;;;;5031919;28;20198;-64
2022/08/20 11:29:48;;;;;;;1999.90;999.90;;;25.00;99.90;;;;;;5032295;28;20188;-64
2022/08/20 11:32:16;;;;;;;1999.90;999.90;;;25.00;99.90;;;;;;5032185;28;20210;-65
2022/08/20 11:34:43;;;;;;;1999.90;999.90;;;25.10;99.90;;;;;;5031860;28;20232;-63
2022/08/20 11:37:12;;;;;;;1999.90;999.90;;;24.60;99.90;;;;;;5031849;28;20224;-62
2022/08/20 11:39:39;;;;;;;1999.90;999.90;;;25.00;99.90;;;;;;5032243;28;20202;-64
2022/08/20 11:42:06;;;;;;;1999.90;999.90;;;25.10;99.90;;;;;;5032282;28;20203;-64
2022/08/20 11:44:34;;;;;;;1999.90;999.90;;;25.00;99.90;;;;;;5032177;28;20318;-64
2022/08/20 11:47:02;;;;;;;1999.90;999.90;;;25.10;99.90;;;;;;5032189;28;20196;-65
2022/08/20 11:49:30;;;;;;;1999.90;999.90;;;24.50;99.90;;;;;;5031923;28;20204;-64
2022/08/20 11:51:57;;;;;;;1999.90;999.90;;;24.80;99.90;;;;;;5031689;28;20665;-65
2022/08/20 11:54:24;;;;;;;1999.90;999.90;;;25.20;99.90;;;;;;5032524;28;20195;-65
2022/08/20 11:56:51;;;;;;;1999.90;999.90;;;25.30;99.90;;;;;;5035893;28;20223;-65
2022/08/20 11:59:19;;;;;;;1999.90;999.90;;;25.00;99.90;;;;;;5035560;28;20199;-65
2022/08/20 12:01:48;;;;;;;1999.90;999.90;;;24.70;99.90;;;;;;5035800;28;20198;-64
2022/08/20 12:04:15;;;;;;;1999.90;999.90;;;24.90;99.90;;;;;;5035499;28;20375;-63
2022/08/20 12:06:42;;;;;;;1999.90;999.90;;;25.30;99.90;;;;;;5035395;28;20273;-63
2022/08/20 12:09:09;;;;;;;1999.90;999.90;;;25.50;99.90;;;;;;5035343;28;20559;-64
2022/08/20 12:11:36;;;;;;;1999.90;999.90;;;25.50;99.90;;;;;;5035266;28;20554;-64